sensor_id;sensor_type;location;lat;lon;timestamp;P1;durP1;ratioP1;P2;durP2;ratioP2
84993;SDS011;75309;44.830;20.460;2024-01-27T00:02:00;17.70;;;8.10;;
84993;SDS011;75309;44.830;20.460;2024-01-27T00:04:29;31.20;;;15.50;;
84993;SDS011;75309;44.830;20.460;2024-01-27T00:06:57;21.40;;;10.40;;
84993;SDS011;75309;44.830;20.460;2024-01-27T00:09:25;21.10;;;11.20;;
84993;SDS011;75309;44.830;20.460;2024-01-27T00:11:53;22.30;;;12.60;;
84993;SDS011;75309;44.830;20.460;2024-01-27T00:14:21;20.70;;;11.10;;
84993;SDS011;75309;44.830;20.460;2024-01-27T00:16:49;25.10;;;12.20;;
84993;SDS011;75309;44.830;20.460;2024-01-27T00:19:17;27.60;;;13.90;;
84993;SDS011;75309;44.830;20.460;2024-01-27T00:21:46;27.30;;;13.20;;
84993;SDS011;75309;44.830;20.460;2024-01-27T00:24:14;24.50;;;13.80;;
84993;SDS011;75309;44.830;20.460;2024-01-27T00:26:42;28.80;;;14.20;;
84993;SDS011;75309;44.830;20.460;2024-01-27T00:29:13;22.40;;;13.30;;
84993;SDS011;75309;44.830;20.460;2024-01-27T00:31:42;26.20;;;14.20;;
84993;SDS011;75309;44.830;20.460;2024-01-27T00:34:10;28.40;;;13.80;;
84993;SDS011;75309;44.830;20.460;2024-01-27T00:36:38;27.20;;;13.60;;
84993;SDS011;75309;44.830;20.460;2024-01-27T00:39:06;28.20;;;14.30;;
84993;SDS011;75309;44.830;20.460;2024-01-27T00:41:36;24.60;;;13.20;;
84993;SDS011;75309;44.830;20.460;2024-01-27T00:44:04;25.10;;;12.90;;
84993;SDS011;75309;44.830;20.460;2024-01-27T00:46:32;27.40;;;12.60;;
84993;SDS011;75309;44.830;20.460;2024-01-27T00:49:00;22.20;;;10.90;;
84993;SDS011;75309;44.830;20.460;2024-01-27T00:53:56;20.90;;;9.30;;
84993;SDS011;75309;44.830;20.460;2024-01-27T00:56:24;16.10;;;7.50;;
84993;SDS011;75309;44.830;20.460;2024-01-27T00:58:52;14.40;;;6.90;;
84993;SDS011;75309;44.830;20.460;2024-01-27T01:01:20;16.60;;;7.70;;
84993;SDS011;75309;44.830;20.460;2024-01-27T01:06:17;16.70;;;7.10;;
84993;SDS011;75309;44.830;20.460;2024-01-27T01:08:45;17.50;;;6.90;;
84993;SDS011;75309;44.830;20.460;2024-01-27T01:11:14;16.00;;;6.70;;
84993;SDS011;75309;44.830;20.460;2024-01-27T01:13:42;18.90;;;7.80;;
84993;SDS011;75309;44.830;20.460;2024-01-27T01:16:10;15.30;;;7.00;;
84993;SDS011;75309;44.830;20.460;2024-01-27T01:18:38;16.70;;;7.30;;
84993;SDS011;75309;44.830;20.460;2024-01-27T01:21:07;17.20;;;7.90;;
84993;SDS011;75309;44.830;20.460;2024-01-27T01:23:35;18.10;;;8.30;;
84993;SDS011;75309;44.830;20.460;2024-01-27T01:26:03;17.30;;;9.00;;
84993;SDS011;75309;44.830;20.460;2024-01-27T01:31:00;20.90;;;9.00;;
84993;SDS011;75309;44.830;20.460;2024-01-27T01:33:28;21.70;;;10.50;;
84993;SDS011;75309;44.830;20.460;2024-01-27T01:35:56;22.20;;;10.50;;
84993;SDS011;75309;44.830;20.460;2024-01-27T01:38:24;23.20;;;10.90;;
84993;SDS011;75309;44.830;20.460;2024-01-27T01:40:52;20.70;;;9.70;;
84993;SDS011;75309;44.830;20.460;2024-01-27T01:43:20;21.00;;;10.30;;
84993;SDS011;75309;44.830;20.460;2024-01-27T01:48:18;21.40;;;10.10;;
84993;SDS011;75309;44.830;20.460;2024-01-27T01:50:47;18.40;;;9.30;;
84993;SDS011;75309;44.830;20.460;2024-01-27T01:53:16;18.70;;;8.40;;
84993;SDS011;75309;44.830;20.460;2024-01-27T01:55:44;21.60;;;9.50;;
84993;SDS011;75309;44.830;20.460;2024-01-27T01:58:14;19.80;;;9.00;;
84993;SDS011;75309;44.830;20.460;2024-01-27T02:00:42;17.40;;;8.80;;
84993;SDS011;75309;44.830;20.460;2024-01-27T02:03:12;16.30;;;8.00;;
84993;SDS011;75309;44.830;20.460;2024-01-27T02:05:41;18.90;;;8.70;;
84993;SDS011;75309;44.830;20.460;2024-01-27T02:08:09;10.80;;;5.60;;
84993;SDS011;75309;44.830;20.460;2024-01-27T02:10:37;13.80;;;7.10;;
84993;SDS011;75309;44.830;20.460;2024-01-27T02:13:15;17.60;;;8.70;;
84993;SDS011;75309;44.830;20.460;2024-01-27T02:15:45;23.70;;;9.10;;
84993;SDS011;75309;44.830;20.460;2024-01-27T02:18:14;28.70;;;15.00;;
84993;SDS011;75309;44.830;20.460;2024-01-27T02:20:43;32.60;;;15.80;;
84993;SDS011;75309;44.830;20.460;2024-01-27T02:23:11;28.30;;;15.70;;
84993;SDS011;75309;44.830;20.460;2024-01-27T02:25:39;31.60;;;15.10;;
84993;SDS011;75309;44.830;20.460;2024-01-27T02:28:07;29.20;;;12.10;;
84993;SDS011;75309;44.830;20.460;2024-01-27T02:30:35;11.80;;;5.30;;
84993;SDS011;75309;44.830;20.460;2024-01-27T02:33:03;21.60;;;9.20;;
84993;SDS011;75309;44.830;20.460;2024-01-27T02:35:32;14.60;;;7.40;;
84993;SDS011;75309;44.830;20.460;2024-01-27T02:38:00;16.00;;;7.10;;
84993;SDS011;75309;44.830;20.460;2024-01-27T02:40:29;18.60;;;7.30;;
84993;SDS011;75309;44.830;20.460;2024-01-27T02:42:57;16.20;;;7.40;;
84993;SDS011;75309;44.830;20.460;2024-01-27T02:45:26;15.80;;;7.00;;
84993;SDS011;75309;44.830;20.460;2024-01-27T02:47:54;10.20;;;5.00;;
84993;SDS011;75309;44.830;20.460;2024-01-27T02:50:22;21.60;;;8.60;;
84993;SDS011;75309;44.830;20.460;2024-01-27T02:52:50;17.90;;;7.90;;
84993;SDS011;75309;44.830;20.460;2024-01-27T02:55:18;20.50;;;9.70;;
84993;SDS011;75309;44.830;20.460;2024-01-27T02:57:46;17.00;;;7.90;;
84993;SDS011;75309;44.830;20.460;2024-01-27T03:00:15;16.50;;;7.00;;
84993;SDS011;75309;44.830;20.460;2024-01-27T03:02:43;17.70;;;7.90;;
84993;SDS011;75309;44.830;20.460;2024-01-27T03:05:11;17.20;;;7.40;;
84993;SDS011;75309;44.830;20.460;2024-01-27T03:07:42;16.70;;;7.00;;
84993;SDS011;75309;44.830;20.460;2024-01-27T03:10:09;12.00;;;5.80;;
84993;SDS011;75309;44.830;20.460;2024-01-27T03:12:38;15.00;;;7.00;;
84993;SDS011;75309;44.830;20.460;2024-01-27T03:15:06;14.60;;;6.80;;
84993;SDS011;75309;44.830;20.460;2024-01-27T03:17:35;14.20;;;6.60;;
84993;SDS011;75309;44.830;20.460;2024-01-27T03:20:03;15.60;;;7.00;;
84993;SDS011;75309;44.830;20.460;2024-01-27T03:22:32;11.80;;;5.30;;
84993;SDS011;75309;44.830;20.460;2024-01-27T03:25:00;12.30;;;5.40;;
84993;SDS011;75309;44.830;20.460;2024-01-27T03:27:28;13.80;;;5.50;;
84993;SDS011;75309;44.830;20.460;2024-01-27T03:29:59;9.70;;;4.60;;
84993;SDS011;75309;44.830;20.460;2024-01-27T03:32:30;11.10;;;4.70;;
84993;SDS011;75309;44.830;20.460;2024-01-27T03:35:01;9.70;;;3.50;;
84993;SDS011;75309;44.830;20.460;2024-01-27T03:37:30;11.20;;;4.10;;
84993;SDS011;75309;44.830;20.460;2024-01-27T03:39:58;9.10;;;3.50;;
84993;SDS011;75309;44.830;20.460;2024-01-27T03:42:27;8.70;;;3.80;;
84993;SDS011;75309;44.830;20.460;2024-01-27T03:47:23;11.10;;;5.30;;
84993;SDS011;75309;44.830;20.460;2024-01-27T03:49:51;13.10;;;6.50;;
84993;SDS011;75309;44.830;20.460;2024-01-27T03:52:20;14.10;;;6.20;;
84993;SDS011;75309;44.830;20.460;2024-01-27T03:54:49;13.60;;;7.10;;
84993;SDS011;75309;44.830;20.460;2024-01-27T03:57:17;13.70;;;7.30;;
84993;SDS011;75309;44.830;20.460;2024-01-27T03:59:45;13.50;;;7.30;;
84993;SDS011;75309;44.830;20.460;2024-01-27T04:02:13;14.00;;;6.70;;
84993;SDS011;75309;44.830;20.460;2024-01-27T04:04:42;7.20;;;2.90;;
84993;SDS011;75309;44.830;20.460;2024-01-27T04:07:10;6.90;;;2.50;;
84993;SDS011;75309;44.830;20.460;2024-01-27T04:12:06;4.80;;;1.50;;
84993;SDS011;75309;44.830;20.460;2024-01-27T04:14:36;6.60;;;1.90;;
84993;SDS011;75309;44.830;20.460;2024-01-27T04:17:04;5.80;;;2.10;;
84993;SDS011;75309;44.830;20.460;2024-01-27T04:19:32;6.10;;;1.90;;
84993;SDS011;75309;44.830;20.460;2024-01-27T04:22:00;4.00;;;1.20;;
84993;SDS011;75309;44.830;20.460;2024-01-27T04:24:28;7.00;;;1.80;;
84993;SDS011;75309;44.830;20.460;2024-01-27T04:26:57;3.90;;;1.40;;
84993;SDS011;75309;44.830;20.460;2024-01-27T04:29:26;3.10;;;1.10;;
84993;SDS011;75309;44.830;20.460;2024-01-27T04:31:54;4.80;;;1.30;;
84993;SDS011;75309;44.830;20.460;2024-01-27T04:34:22;4.50;;;1.60;;
84993;SDS011;75309;44.830;20.460;2024-01-27T04:36:51;7.30;;;1.60;;
84993;SDS011;75309;44.830;20.460;2024-01-27T04:39:20;5.50;;;1.90;;
84993;SDS011;75309;44.830;20.460;2024-01-27T04:41:48;5.20;;;1.60;;
84993;SDS011;75309;44.830;20.460;2024-01-27T04:44:16;4.60;;;1.30;;
84993;SDS011;75309;44.830;20.460;2024-01-27T04:46:44;4.00;;;1.10;;
84993;SDS011;75309;44.830;20.460;2024-01-27T04:49:12;4.20;;;1.10;;
84993;SDS011;75309;44.830;20.460;2024-01-27T04:54:08;4.30;;;0.90;;
84993;SDS011;75309;44.830;20.460;2024-01-27T04:56:37;3.40;;;1.10;;
84993;SDS011;75309;44.830;20.460;2024-01-27T04:59:05;3.00;;;0.70;;
84993;SDS011;75309;44.830;20.460;2024-01-27T05:01:33;3.70;;;0.80;;
84993;SDS011;75309;44.830;20.460;2024-01-27T05:04:01;3.20;;;1.00;;
84993;SDS011;75309;44.830;20.460;2024-01-27T05:06:29;4.10;;;1.10;;
84993;SDS011;75309;44.830;20.460;2024-01-27T05:08:57;5.40;;;1.20;;
84993;SDS011;75309;44.830;20.460;2024-01-27T05:11:29;2.00;;;0.60;;
84993;SDS011;75309;44.830;20.460;2024-01-27T05:14:01;3.40;;;0.90;;
84993;SDS011;75309;44.830;20.460;2024-01-27T05:16:29;2.60;;;0.90;;
84993;SDS011;75309;44.830;20.460;2024-01-27T05:18:57;2.10;;;0.40;;
84993;SDS011;75309;44.830;20.460;2024-01-27T05:21:25;1.60;;;0.70;;
84993;SDS011;75309;44.830;20.460;2024-01-27T05:26:22;1.70;;;0.50;;
84993;SDS011;75309;44.830;20.460;2024-01-27T05:28:50;1.90;;;0.60;;
84993;SDS011;75309;44.830;20.460;2024-01-27T05:31:18;1.80;;;0.50;;
84993;SDS011;75309;44.830;20.460;2024-01-27T05:33:47;1.20;;;0.50;;
84993;SDS011;75309;44.830;20.460;2024-01-27T05:36:16;3.10;;;1.00;;
84993;SDS011;75309;44.830;20.460;2024-01-27T05:38:44;2.70;;;0.70;;
84993;SDS011;75309;44.830;20.460;2024-01-27T05:41:12;2.30;;;0.50;;
84993;SDS011;75309;44.830;20.460;2024-01-27T05:43:40;2.80;;;0.70;;
84993;SDS011;75309;44.830;20.460;2024-01-27T05:48:37;2.00;;;0.60;;
84993;SDS011;75309;44.830;20.460;2024-01-27T05:53:34;2.60;;;0.60;;
84993;SDS011;75309;44.830;20.460;2024-01-27T05:56:03;2.60;;;0.60;;
84993;SDS011;75309;44.830;20.460;2024-01-27T05:58:31;0.90;;;0.40;;
84993;SDS011;75309;44.830;20.460;2024-01-27T06:00:59;4.80;;;1.00;;
84993;SDS011;75309;44.830;20.460;2024-01-27T06:03:27;2.40;;;0.80;;
84993;SDS011;75309;44.830;20.460;2024-01-27T06:05:55;2.30;;;0.70;;
84993;SDS011;75309;44.830;20.460;2024-01-27T06:08:23;1.70;;;0.60;;
84993;SDS011;75309;44.830;20.460;2024-01-27T06:10:51;2.40;;;0.50;;
84993;SDS011;75309;44.830;20.460;2024-01-27T06:13:20;2.10;;;0.60;;
84993;SDS011;75309;44.830;20.460;2024-01-27T06:15:48;3.20;;;0.80;;
84993;SDS011;75309;44.830;20.460;2024-01-27T06:18:16;1.40;;;0.50;;
84993;SDS011;75309;44.830;20.460;2024-01-27T06:20:45;2.50;;;0.80;;
84993;SDS011;75309;44.830;20.460;2024-01-27T06:23:13;3.20;;;0.90;;
84993;SDS011;75309;44.830;20.460;2024-01-27T06:25:42;2.80;;;0.80;;
84993;SDS011;75309;44.830;20.460;2024-01-27T06:28:10;2.10;;;0.70;;
84993;SDS011;75309;44.830;20.460;2024-01-27T06:30:38;1.10;;;0.60;;
84993;SDS011;75309;44.830;20.460;2024-01-27T06:33:06;4.10;;;1.10;;
84993;SDS011;75309;44.830;20.460;2024-01-27T06:35:35;2.10;;;0.80;;
84993;SDS011;75309;44.830;20.460;2024-01-27T06:38:03;0.80;;;0.40;;
84993;SDS011;75309;44.830;20.460;2024-01-27T06:42:59;2.20;;;0.80;;
84993;SDS011;75309;44.830;20.460;2024-01-27T06:45:30;3.90;;;1.30;;
84993;SDS011;75309;44.830;20.460;2024-01-27T06:47:59;2.10;;;0.70;;
84993;SDS011;75309;44.830;20.460;2024-01-27T06:50:27;2.30;;;0.80;;
84993;SDS011;75309;44.830;20.460;2024-01-27T06:52:55;2.50;;;0.80;;
84993;SDS011;75309;44.830;20.460;2024-01-27T06:55:23;2.90;;;0.90;;
84993;SDS011;75309;44.830;20.460;2024-01-27T06:57:51;1.90;;;0.80;;
84993;SDS011;75309;44.830;20.460;2024-01-27T07:00:19;1.10;;;0.40;;
84993;SDS011;75309;44.830;20.460;2024-01-27T07:02:48;3.50;;;1.00;;
84993;SDS011;75309;44.830;20.460;2024-01-27T07:05:16;2.40;;;0.80;;
84993;SDS011;75309;44.830;20.460;2024-01-27T07:07:44;2.60;;;0.70;;
84993;SDS011;75309;44.830;20.460;2024-01-27T07:10:12;1.70;;;0.60;;
84993;SDS011;75309;44.830;20.460;2024-01-27T07:12:42;2.20;;;0.60;;
84993;SDS011;75309;44.830;20.460;2024-01-27T07:15:10;3.20;;;0.90;;
84993;SDS011;75309;44.830;20.460;2024-01-27T07:17:38;2.30;;;0.90;;
84993;SDS011;75309;44.830;20.460;2024-01-27T07:20:10;2.60;;;0.80;;
84993;SDS011;75309;44.830;20.460;2024-01-27T07:22:38;3.30;;;0.80;;
84993;SDS011;75309;44.830;20.460;2024-01-27T07:25:07;1.60;;;0.60;;
84993;SDS011;75309;44.830;20.460;2024-01-27T07:27:38;3.10;;;0.70;;
84993;SDS011;75309;44.830;20.460;2024-01-27T07:30:06;2.10;;;0.80;;
84993;SDS011;75309;44.830;20.460;2024-01-27T07:32:36;1.80;;;0.70;;
84993;SDS011;75309;44.830;20.460;2024-01-27T07:37:33;3.10;;;1.00;;
84993;SDS011;75309;44.830;20.460;2024-01-27T07:40:01;4.30;;;1.10;;
84993;SDS011;75309;44.830;20.460;2024-01-27T07:42:30;1.30;;;0.40;;
84993;SDS011;75309;44.830;20.460;2024-01-27T07:44:58;2.60;;;0.90;;
84993;SDS011;75309;44.830;20.460;2024-01-27T07:47:26;2.00;;;0.80;;
84993;SDS011;75309;44.830;20.460;2024-01-27T07:49:54;2.70;;;0.60;;
84993;SDS011;75309;44.830;20.460;2024-01-27T07:52:25;2.40;;;0.70;;
84993;SDS011;75309;44.830;20.460;2024-01-27T07:54:53;2.10;;;0.60;;
84993;SDS011;75309;44.830;20.460;2024-01-27T07:57:23;1.70;;;0.80;;
84993;SDS011;75309;44.830;20.460;2024-01-27T07:59:52;1.70;;;0.60;;
84993;SDS011;75309;44.830;20.460;2024-01-27T08:02:20;1.80;;;0.70;;
84993;SDS011;75309;44.830;20.460;2024-01-27T08:07:17;2.60;;;1.00;;
84993;SDS011;75309;44.830;20.460;2024-01-27T08:09:47;3.80;;;1.00;;
84993;SDS011;75309;44.830;20.460;2024-01-27T08:12:15;2.20;;;0.70;;
84993;SDS011;75309;44.830;20.460;2024-01-27T08:14:44;2.20;;;0.70;;
84993;SDS011;75309;44.830;20.460;2024-01-27T08:17:12;4.00;;;1.00;;
84993;SDS011;75309;44.830;20.460;2024-01-27T08:19:42;4.60;;;1.10;;
84993;SDS011;75309;44.830;20.460;2024-01-27T08:22:10;1.40;;;0.40;;
84993;SDS011;75309;44.830;20.460;2024-01-27T08:24:38;2.30;;;0.80;;
84993;SDS011;75309;44.830;20.460;2024-01-27T08:27:06;3.50;;;0.80;;
84993;SDS011;75309;44.830;20.460;2024-01-27T08:29:34;0.90;;;0.50;;
84993;SDS011;75309;44.830;20.460;2024-01-27T08:32:03;5.20;;;1.00;;
84993;SDS011;75309;44.830;20.460;2024-01-27T08:34:31;2.90;;;0.90;;
84993;SDS011;75309;44.830;20.460;2024-01-27T08:37:00;3.40;;;0.90;;
84993;SDS011;75309;44.830;20.460;2024-01-27T08:39:29;4.60;;;0.80;;
84993;SDS011;75309;44.830;20.460;2024-01-27T08:41:58;4.20;;;1.20;;
84993;SDS011;75309;44.830;20.460;2024-01-27T08:44:27;2.30;;;0.70;;
84993;SDS011;75309;44.830;20.460;2024-01-27T08:46:55;2.90;;;0.90;;
84993;SDS011;75309;44.830;20.460;2024-01-27T08:49:28;5.40;;;0.90;;
84993;SDS011;75309;44.830;20.460;2024-01-27T08:51:56;2.00;;;0.70;;
84993;SDS011;75309;44.830;20.460;2024-01-27T08:54:25;1.90;;;0.70;;
84993;SDS011;75309;44.830;20.460;2024-01-27T08:56:53;2.20;;;0.50;;
84993;SDS011;75309;44.830;20.460;2024-01-27T08:59:21;3.80;;;0.80;;
84993;SDS011;75309;44.830;20.460;2024-01-27T09:01:49;1.90;;;0.60;;
84993;SDS011;75309;44.830;20.460;2024-01-27T09:04:18;4.40;;;1.00;;
84993;SDS011;75309;44.830;20.460;2024-01-27T09:06:46;1.10;;;0.40;;
84993;SDS011;75309;44.830;20.460;2024-01-27T09:09:15;4.10;;;0.60;;
84993;SDS011;75309;44.830;20.460;2024-01-27T09:11:43;2.90;;;0.60;;
84993;SDS011;75309;44.830;20.460;2024-01-27T09:14:11;2.90;;;0.80;;
84993;SDS011;75309;44.830;20.460;2024-01-27T09:16:39;5.10;;;0.80;;
84993;SDS011;75309;44.830;20.460;2024-01-27T09:19:08;2.40;;;0.50;;
84993;SDS011;75309;44.830;20.460;2024-01-27T09:21:37;1.70;;;0.60;;
84993;SDS011;75309;44.830;20.460;2024-01-27T09:24:06;3.20;;;0.70;;
84993;SDS011;75309;44.830;20.460;2024-01-27T09:26:35;2.70;;;1.00;;
84993;SDS011;75309;44.830;20.460;2024-01-27T09:29:03;2.50;;;0.70;;
84993;SDS011;75309;44.830;20.460;2024-01-27T09:31:31;3.00;;;0.70;;
84993;SDS011;75309;44.830;20.460;2024-01-27T09:33:59;3.40;;;1.00;;
84993;SDS011;75309;44.830;20.460;2024-01-27T09:36:27;4.00;;;1.00;;
84993;SDS011;75309;44.830;20.460;2024-01-27T09:38:56;3.10;;;0.80;;
84993;SDS011;75309;44.830;20.460;2024-01-27T09:41:24;3.30;;;0.70;;
84993;SDS011;75309;44.830;20.460;2024-01-27T09:43:59;1.30;;;0.20;;
84993;SDS011;75309;44.830;20.460;2024-01-27T09:46:32;3.70;;;0.80;;
84993;SDS011;75309;44.830;20.460;2024-01-27T09:49:01;2.10;;;0.50;;
84993;SDS011;75309;44.830;20.460;2024-01-27T09:51:31;3.30;;;0.60;;
84993;SDS011;75309;44.830;20.460;2024-01-27T09:54:00;2.60;;;0.60;;
84993;SDS011;75309;44.830;20.460;2024-01-27T09:56:28;5.20;;;1.10;;
84993;SDS011;75309;44.830;20.460;2024-01-27T10:01:25;2.30;;;0.80;;
84993;SDS011;75309;44.830;20.460;2024-01-27T10:03:56;2.80;;;0.80;;
84993;SDS011;75309;44.830;20.460;2024-01-27T10:06:27;5.30;;;1.10;;
84993;SDS011;75309;44.830;20.460;2024-01-27T10:08:55;2.40;;;1.00;;
84993;SDS011;75309;44.830;20.460;2024-01-27T10:11:24;3.00;;;0.70;;
84993;SDS011;75309;44.830;20.460;2024-01-27T10:13:56;2.40;;;1.00;;
84993;SDS011;75309;44.830;20.460;2024-01-27T10:16:27;3.90;;;1.00;;
84993;SDS011;75309;44.830;20.460;2024-01-27T10:19:00;3.10;;;0.70;;
84993;SDS011;75309;44.830;20.460;2024-01-27T10:21:32;3.20;;;1.10;;
84993;SDS011;75309;44.830;20.460;2024-01-27T10:26:32;3.80;;;1.30;;
84993;SDS011;75309;44.830;20.460;2024-01-27T10:29:01;4.20;;;1.20;;
84993;SDS011;75309;44.830;20.460;2024-01-27T10:31:30;3.60;;;0.90;;
84993;SDS011;75309;44.830;20.460;2024-01-27T10:34:01;2.60;;;0.90;;
84993;SDS011;75309;44.830;20.460;2024-01-27T10:36:41;4.20;;;1.20;;
84993;SDS011;75309;44.830;20.460;2024-01-27T10:39:20;4.70;;;1.00;;
84993;SDS011;75309;44.830;20.460;2024-01-27T10:41:49;3.60;;;0.90;;
84993;SDS011;75309;44.830;20.460;2024-01-27T10:44:19;4.40;;;1.00;;
84993;SDS011;75309;44.830;20.460;2024-01-27T10:46:48;2.90;;;0.80;;
84993;SDS011;75309;44.830;20.460;2024-01-27T10:49:17;4.80;;;1.20;;
84993;SDS011;75309;44.830;20.460;2024-01-27T10:51:55;2.60;;;0.90;;
84993;SDS011;75309;44.830;20.460;2024-01-27T10:54:25;3.20;;;0.80;;
84993;SDS011;75309;44.830;20.460;2024-01-27T10:56:56;4.20;;;1.10;;
84993;SDS011;75309;44.830;20.460;2024-01-27T10:59:25;2.70;;;0.80;;
84993;SDS011;75309;44.830;20.460;2024-01-27T11:01:55;2.20;;;0.70;;
84993;SDS011;75309;44.830;20.460;2024-01-27T11:04:24;3.70;;;1.10;;
84993;SDS011;75309;44.830;20.460;2024-01-27T11:06:53;3.00;;;0.90;;
84993;SDS011;75309;44.830;20.460;2024-01-27T11:09:24;3.50;;;1.10;;
84993;SDS011;75309;44.830;20.460;2024-01-27T11:11:53;2.50;;;0.70;;
84993;SDS011;75309;44.830;20.460;2024-01-27T11:14:21;3.90;;;0.90;;
84993;SDS011;75309;44.830;20.460;2024-01-27T11:16:54;3.70;;;0.80;;
84993;SDS011;75309;44.830;20.460;2024-01-27T11:19:23;2.90;;;0.90;;
84993;SDS011;75309;44.830;20.460;2024-01-27T11:22:01;3.50;;;0.90;;
84993;SDS011;75309;44.830;20.460;2024-01-27T11:24:32;1.90;;;0.70;;
84993;SDS011;75309;44.830;20.460;2024-01-27T11:27:04;2.70;;;1.00;;
84993;SDS011;75309;44.830;20.460;2024-01-27T11:29:34;2.60;;;0.90;;
84993;SDS011;75309;44.830;20.460;2024-01-27T11:32:04;2.90;;;0.90;;
84993;SDS011;75309;44.830;20.460;2024-01-27T11:34:45;2.10;;;0.70;;
84993;SDS011;75309;44.830;20.460;2024-01-27T11:37:16;1.80;;;0.60;;
84993;SDS011;75309;44.830;20.460;2024-01-27T11:39:45;3.30;;;1.20;;
84993;SDS011;75309;44.830;20.460;2024-01-27T11:42:14;3.60;;;0.90;;
84993;SDS011;75309;44.830;20.460;2024-01-27T11:44:43;2.90;;;0.80;;
84993;SDS011;75309;44.830;20.460;2024-01-27T11:47:16;3.10;;;0.80;;
84993;SDS011;75309;44.830;20.460;2024-01-27T11:49:52;2.00;;;0.60;;
84993;SDS011;75309;44.830;20.460;2024-01-27T11:52:22;4.50;;;0.80;;
84993;SDS011;75309;44.830;20.460;2024-01-27T11:54:59;2.10;;;0.80;;
84993;SDS011;75309;44.830;20.460;2024-01-27T11:57:27;2.40;;;0.80;;
84993;SDS011;75309;44.830;20.460;2024-01-27T11:59:56;4.70;;;0.70;;
84993;SDS011;75309;44.830;20.460;2024-01-27T12:02:24;5.00;;;1.10;;
84993;SDS011;75309;44.830;20.460;2024-01-27T12:07:22;1.80;;;0.70;;
84993;SDS011;75309;44.830;20.460;2024-01-27T12:09:51;2.10;;;0.50;;
84993;SDS011;75309;44.830;20.460;2024-01-27T12:12:19;2.20;;;0.70;;
84993;SDS011;75309;44.830;20.460;2024-01-27T12:17:16;2.10;;;0.60;;
84993;SDS011;75309;44.830;20.460;2024-01-27T12:19:46;3.00;;;0.80;;
84993;SDS011;75309;44.830;20.460;2024-01-27T12:22:25;1.80;;;0.60;;
84993;SDS011;75309;44.830;20.460;2024-01-27T12:24:55;2.40;;;0.60;;
84993;SDS011;75309;44.830;20.460;2024-01-27T12:27:35;2.20;;;0.70;;
84993;SDS011;75309;44.830;20.460;2024-01-27T12:30:03;2.00;;;0.60;;
84993;SDS011;75309;44.830;20.460;2024-01-27T12:32:33;3.60;;;0.70;;
84993;SDS011;75309;44.830;20.460;2024-01-27T12:35:04;2.40;;;0.60;;
84993;SDS011;75309;44.830;20.460;2024-01-27T12:37:34;2.10;;;0.60;;
84993;SDS011;75309;44.830;20.460;2024-01-27T12:40:25;2.20;;;0.60;;
84993;SDS011;75309;44.830;20.460;2024-01-27T12:42:52;2.10;;;0.60;;
84993;SDS011;75309;44.830;20.460;2024-01-27T12:45:19;1.70;;;0.60;;
84993;SDS011;75309;44.830;20.460;2024-01-27T12:50:17;1.80;;;0.60;;
84993;SDS011;75309;44.830;20.460;2024-01-27T12:55:13;3.00;;;0.90;;
84993;SDS011;75309;44.830;20.460;2024-01-27T12:57:42;1.80;;;0.70;;
84993;SDS011;75309;44.830;20.460;2024-01-27T13:00:11;2.90;;;0.90;;
84993;SDS011;75309;44.830;20.460;2024-01-27T13:02:40;2.20;;;0.60;;
84993;SDS011;75309;44.830;20.460;2024-01-27T13:05:08;3.60;;;0.90;;
84993;SDS011;75309;44.830;20.460;2024-01-27T13:07:37;3.20;;;0.80;;
84993;SDS011;75309;44.830;20.460;2024-01-27T13:10:05;4.20;;;1.10;;
84993;SDS011;75309;44.830;20.460;2024-01-27T13:12:33;2.10;;;0.70;;
84993;SDS011;75309;44.830;20.460;2024-01-27T13:15:03;2.50;;;0.70;;
84993;SDS011;75309;44.830;20.460;2024-01-27T13:17:32;2.10;;;0.80;;
84993;SDS011;75309;44.830;20.460;2024-01-27T13:20:00;1.00;;;0.40;;
84993;SDS011;75309;44.830;20.460;2024-01-27T13:24:56;2.50;;;0.60;;
84993;SDS011;75309;44.830;20.460;2024-01-27T13:27:32;1.40;;;0.50;;
84993;SDS011;75309;44.830;20.460;2024-01-27T13:30:02;1.80;;;0.70;;
84993;SDS011;75309;44.830;20.460;2024-01-27T13:32:33;5.20;;;1.00;;
84993;SDS011;75309;44.830;20.460;2024-01-27T13:35:01;3.20;;;0.80;;
84993;SDS011;75309;44.830;20.460;2024-01-27T13:40:01;1.50;;;0.60;;
84993;SDS011;75309;44.830;20.460;2024-01-27T13:42:35;2.50;;;0.70;;
84993;SDS011;75309;44.830;20.460;2024-01-27T13:45:05;2.30;;;0.70;;
84993;SDS011;75309;44.830;20.460;2024-01-27T13:47:33;2.60;;;0.70;;
84993;SDS011;75309;44.830;20.460;2024-01-27T13:50:01;3.30;;;0.60;;
84993;SDS011;75309;44.830;20.460;2024-01-27T13:52:30;1.90;;;0.80;;
84993;SDS011;75309;44.830;20.460;2024-01-27T13:54:58;2.30;;;0.50;;
84993;SDS011;75309;44.830;20.460;2024-01-27T13:57:26;2.10;;;0.80;;
84993;SDS011;75309;44.830;20.460;2024-01-27T13:59:54;2.60;;;0.70;;
84993;SDS011;75309;44.830;20.460;2024-01-27T14:02:23;2.90;;;0.60;;
84993;SDS011;75309;44.830;20.460;2024-01-27T14:04:53;2.50;;;0.70;;
84993;SDS011;75309;44.830;20.460;2024-01-27T14:07:20;1.60;;;0.60;;
84993;SDS011;75309;44.830;20.460;2024-01-27T14:09:50;2.90;;;0.80;;
84993;SDS011;75309;44.830;20.460;2024-01-27T14:12:18;4.50;;;0.60;;
84993;SDS011;75309;44.830;20.460;2024-01-27T14:14:46;1.00;;;0.30;;
84993;SDS011;75309;44.830;20.460;2024-01-27T14:17:17;3.20;;;0.80;;
84993;SDS011;75309;44.830;20.460;2024-01-27T14:19:45;2.30;;;0.70;;
84993;SDS011;75309;44.830;20.460;2024-01-27T14:22:13;4.30;;;0.90;;
84993;SDS011;75309;44.830;20.460;2024-01-27T14:24:41;3.80;;;1.00;;
84993;SDS011;75309;44.830;20.460;2024-01-27T14:27:09;4.00;;;0.80;;
84993;SDS011;75309;44.830;20.460;2024-01-27T14:29:38;2.80;;;0.80;;
84993;SDS011;75309;44.830;20.460;2024-01-27T14:32:07;4.90;;;0.90;;
84993;SDS011;75309;44.830;20.460;2024-01-27T14:34:35;3.60;;;0.90;;
84993;SDS011;75309;44.830;20.460;2024-01-27T14:39:33;1.10;;;0.50;;
84993;SDS011;75309;44.830;20.460;2024-01-27T14:42:02;2.70;;;0.60;;
84993;SDS011;75309;44.830;20.460;2024-01-27T14:44:32;3.20;;;1.00;;
84993;SDS011;75309;44.830;20.460;2024-01-27T14:47:01;2.70;;;0.70;;
84993;SDS011;75309;44.830;20.460;2024-01-27T14:49:31;3.50;;;0.70;;
84993;SDS011;75309;44.830;20.460;2024-01-27T14:52:00;3.10;;;0.80;;
84993;SDS011;75309;44.830;20.460;2024-01-27T14:54:28;2.20;;;0.50;;
84993;SDS011;75309;44.830;20.460;2024-01-27T14:56:57;1.40;;;0.50;;
84993;SDS011;75309;44.830;20.460;2024-01-27T14:59:27;2.40;;;1.00;;
84993;SDS011;75309;44.830;20.460;2024-01-27T15:01:56;2.20;;;0.90;;
84993;SDS011;75309;44.830;20.460;2024-01-27T15:04:28;3.00;;;0.70;;
84993;SDS011;75309;44.830;20.460;2024-01-27T15:06:56;2.80;;;0.90;;
84993;SDS011;75309;44.830;20.460;2024-01-27T15:09:25;2.40;;;0.80;;
84993;SDS011;75309;44.830;20.460;2024-01-27T15:11:53;2.30;;;0.70;;
84993;SDS011;75309;44.830;20.460;2024-01-27T15:14:21;2.00;;;0.70;;
84993;SDS011;75309;44.830;20.460;2024-01-27T15:16:50;2.60;;;0.60;;
84993;SDS011;75309;44.830;20.460;2024-01-27T15:19:18;2.40;;;0.70;;
84993;SDS011;75309;44.830;20.460;2024-01-27T15:24:14;4.50;;;0.70;;
84993;SDS011;75309;44.830;20.460;2024-01-27T15:26:42;2.10;;;0.70;;
84993;SDS011;75309;44.830;20.460;2024-01-27T15:29:10;3.10;;;1.00;;
84993;SDS011;75309;44.830;20.460;2024-01-27T15:31:40;3.60;;;0.70;;
84993;SDS011;75309;44.830;20.460;2024-01-27T15:34:08;2.20;;;0.80;;
84993;SDS011;75309;44.830;20.460;2024-01-27T15:36:36;4.50;;;0.80;;
84993;SDS011;75309;44.830;20.460;2024-01-27T15:39:05;2.20;;;0.80;;